Time;durP1;ratioP1;P1;durP2;ratioP2;P2;SDS_P1;SDS_P2;PMS_P1;PMS_P2;Temp;Humidity;BMP_temperature;BMP_pressure;BME280_temperature;BME280_humidity;BME280_pressure;Samples;Min_cycle;Max_cycle;Signal;HPM_P1;HPM_P2
2022/11/03 00:01:36;;;;;;;17.25;4.88;;;;;;;10.89;100.00;163412.34;5093289;28;20028;-64
2022/11/03 00:04:06;;;;;;;14.82;5.10;;;;;;;10.85;100.00;163400.19;5080894;28;20025;-64
2022/11/03 00:06:32;;;;;;;10.52;3.85;;;;;;;10.88;100.00;163409.63;5072250;28;20040;-64
2022/11/03 00:08:59;;;;;;;22.60;5.80;;;;;;;10.93;100.00;163423.16;5073885;28;20025;-63
2022/11/03 00:11:25;;;;;;;12.30;5.60;;;;;;;11.01;100.00;163443.38;5078480;28;20024;-63
2022/11/03 00:13:50;;;;;;;20.60;5.93;;;;;;;11.05;100.00;163454.22;5082274;28;20031;-63
2022/11/03 00:16:15;;;;;;;25.00;6.00;;;;;;;11.06;100.00;163455.56;5075847;28;20035;-63
2022/11/03 00:18:41;;;;;;;11.63;5.07;;;;;;;11.09;100.00;163465.00;5094006;28;20081;-63
2022/11/03 00:21:09;;;;;;;12.95;3.88;;;;;;;11.08;100.00;163460.97;5093353;28;20016;-63
2022/11/03 00:23:40;;;;;;;21.20;5.40;;;;;;;11.01;100.00;163443.38;5083431;28;20037;-63
2022/11/03 00:26:09;;;;;;;17.30;4.85;;;;;;;10.93;100.00;163421.78;5073354;28;20017;-63
2022/11/03 00:28:35;;;;;;;13.07;5.05;;;;;;;10.88;100.00;163409.63;5080721;28;20047;-64
2022/11/03 00:31:06;;;;;;;20.67;6.20;;;;;;;10.88;100.00;163408.28;5093880;28;20044;-63
2022/11/03 00:33:32;;;;;;;14.27;4.53;;;;;;;10.92;100.00;163419.06;5083236;28;20178;-62
2022/11/03 00:35:58;;;;;;;14.05;6.35;;;;;;;10.97;100.00;163431.22;5093413;28;20481;-62
2022/11/03 00:38:24;;;;;;;19.45;5.00;;;;;;;11.01;100.00;163443.38;5091911;28;20036;-63
2022/11/03 00:40:57;;;;;;;9.55;3.85;;;;;;;11.00;100.00;163440.69;5082277;28;20020;-62
2022/11/03 00:43:23;;;;;;;15.45;5.18;;;;;;;10.95;100.00;163427.19;5084430;28;20326;-63
2022/11/03 00:45:49;;;;;;;15.15;4.53;;;;;;;10.93;100.00;163421.78;5072913;28;20177;-63
2022/11/03 00:48:29;;;;;;;15.80;4.80;;;;;;;10.88;100.00;163408.28;5081248;28;20559;-63
2022/11/03 00:51:14;;;;;;;21.33;5.10;;;;;;;10.87;100.00;163405.59;5093432;28;20031;-63
2022/11/03 00:53:44;;;;;;;12.98;5.85;;;;;;;10.82;100.00;163392.09;5082928;28;20128;-63
2022/11/03 00:56:13;;;;;;;17.77;6.45;;;;;;;10.78;100.00;163384.00;5071089;28;20090;-63
2022/11/03 00:58:38;;;;;;;15.82;5.55;;;;;;;10.83;100.00;163394.81;5091025;28;20078;-63
2022/11/03 01:01:06;;;;;;;17.92;6.05;;;;;;;10.84;100.00;163397.47;5092995;28;20480;-64
2022/11/03 01:03:33;;;;;;;23.25;6.63;;;;;;;10.75;100.00;163375.91;5084133;28;20131;-63
2022/11/03 01:08:43;;;;;;;11.48;4.45;;;;;;;10.65;100.00;163348.91;5076839;28;20054;-63
2022/11/03 01:13:56;;;;;;;19.13;5.65;;;;;;;10.63;100.00;163343.50;5079566;28;20031;-63
2022/11/03 01:16:22;;;;;;;10.45;4.43;;;;;;;10.62;100.00;163342.16;5077648;28;20024;-63
2022/11/03 01:18:48;;;;;;;17.40;5.65;;;;;;;10.60;100.00;163335.41;5092467;28;20017;-63
2022/11/03 01:21:13;;;;;;;20.83;5.85;;;;;;;10.63;100.00;163343.50;5091265;28;20067;-63
2022/11/03 01:23:38;;;;;;;13.43;5.13;;;;;;;10.63;100.00;163344.88;5084574;28;20031;-63
2022/11/03 01:26:05;;;;;;;12.68;4.43;;;;;;;10.66;100.00;163350.22;5071774;28;20040;-63
2022/11/03 01:28:33;;;;;;;17.15;5.35;;;;;;;10.58;100.00;163330.00;5070884;28;20037;-63
2022/11/03 01:31:06;;;;;;;16.23;5.47;;;;;;;10.53;100.00;163316.53;5072481;28;20039;-63
2022/11/03 01:33:31;;;;;;;13.90;4.40;;;;;;;10.50;100.00;163308.41;5076549;28;20064;-63
2022/11/03 01:35:57;;;;;;;10.65;5.20;;;;;;;10.46;100.00;163300.28;5091215;28;20027;-63
2022/11/03 01:38:22;;;;;;;11.38;5.53;;;;;;;10.42;100.00;163289.50;5081107;28;20048;-64
2022/11/03 01:40:48;;;;;;;10.25;4.30;;;;;;;10.36;100.00;163273.25;5082564;28;20029;-62
2022/11/03 01:43:15;;;;;;;19.48;4.93;;;;;;;10.28;100.00;163251.66;5073990;28;20507;-62
2022/11/03 01:45:40;;;;;;;13.55;4.60;;;;;;;10.35;100.00;163270.56;5092552;28;20028;-62
2022/11/03 01:48:08;;;;;;;10.85;5.43;;;;;;;10.35;100.00;163269.25;5090252;28;20044;-62
2022/11/03 01:50:33;;;;;;;14.88;6.60;;;;;;;10.41;100.00;163286.81;5092236;28;20111;-62
2022/11/03 01:52:58;;;;;;;16.23;4.97;;;;;;;10.42;100.00;163289.50;5088352;28;20443;-62
2022/11/03 01:55:29;;;;;;;14.27;6.18;;;;;;;10.39;100.00;163281.38;5071544;28;20020;-61
2022/11/03 01:58:00;;;;;;;23.75;6.95;;;;;;;10.34;100.00;163267.84;5069708;28;20040;-61
2022/11/03 02:00:26;;;;;;;10.82;4.40;;;;;;;10.36;100.00;163273.25;5071865;28;20109;-61
2022/11/03 02:02:53;;;;;;;15.05;4.70;;;;;;;10.44;100.00;163293.53;5070259;28;20625;-61
2022/11/03 02:05:21;;;;;;;15.82;5.00;;;;;;;10.47;100.00;163303.00;5085330;28;20078;-61
2022/11/03 02:07:55;;;;;;;24.65;5.88;;;;;;;10.51;100.00;163311.09;5086648;28;20047;-61
2022/11/03 02:10:23;;;;;;;17.30;5.95;;;;;;;10.46;100.00;163300.28;5084482;28;20496;-61
2022/11/03 02:12:48;;;;;;;24.15;6.22;;;;;;;10.47;100.00;163303.00;5070118;28;20060;-62
2022/11/03 02:15:17;;;;;;;11.15;4.65;;;;;;;10.48;100.00;163304.38;5091061;28;20042;-61
2022/11/03 02:17:45;;;;;;;20.92;6.18;;;;;;;10.55;100.00;163321.88;5090087;28;20126;-61
2022/11/03 02:20:21;;;;;;;20.10;4.75;;;;;;;10.56;100.00;163324.59;5090955;28;20031;-61
2022/11/03 02:23:08;;;;;;;13.80;4.70;;;;;;;10.59;100.00;163332.72;5090124;28;20101;-62
2022/11/03 02:25:44;;;;;;;15.77;5.33;;;;;;;10.63;100.00;163343.50;5071045;28;20078;-62
2022/11/03 02:28:12;;;;;;;10.95;3.92;;;;;;;10.66;100.00;163351.59;5069566;28;20465;-63
2022/11/03 02:30:44;;;;;;;11.05;4.35;;;;;;;10.60;100.00;163335.41;5071854;28;20027;-63
2022/11/03 02:33:47;;;;;;;15.98;5.35;;;;;;;10.61;100.00;163338.13;5069085;28;20138;-63
2022/11/03 02:36:44;;;;;;;14.43;4.10;;;;;;;10.61;100.00;163338.13;5069748;28;20440;-64
2022/11/03 02:39:15;;;;;;;12.13;5.57;;;;;;;10.51;100.00;163311.09;5081720;28;20024;-63
2022/11/03 02:41:42;;;;;;;10.95;4.13;;;;;;;10.49;100.00;163307.06;5089199;28;20046;-63
2022/11/03 02:44:15;;;;;;;13.27;5.60;;;;;;;10.46;100.00;163300.28;5080669;28;20078;-63
2022/11/03 02:46:43;;;;;;;24.83;6.90;;;;;;;10.42;100.00;163289.50;5074018;28;20110;-63
2022/11/03 02:49:08;;;;;;;12.43;4.20;;;;;;;10.38;100.00;163278.72;5090728;28;20111;-63
2022/11/03 02:51:33;;;;;;;13.57;3.63;;;;;;;10.39;100.00;163281.38;5089781;28;20040;-63
2022/11/03 02:54:22;;;;;;;19.88;5.63;;;;;;;10.30;100.00;163258.41;5079695;28;20066;-63
2022/11/03 02:57:02;;;;;;;;;;;;;;;10.33;100.00;163265.16;5069607;28;20531;-63
2022/11/03 02:59:55;;;;;;;15.20;5.13;;;;;;;10.37;100.00;163276.03;5079727;28;20379;-62
2022/11/03 03:02:26;;;;;;;17.02;5.55;;;;;;;10.32;100.00;163262.44;5075613;28;20127;-63
2022/11/03 03:04:56;;;;;;;13.35;5.20;;;;;;;10.32;100.00;163262.44;5085093;28;20039;-63
2022/11/03 03:07:28;;;;;;;9.13;5.35;;;;;;;10.29;100.00;163254.38;5069157;28;20090;-63
2022/11/03 03:10:00;;;;;;;19.58;7.00;;;;;;;10.24;100.00;163242.22;5070353;28;20036;-63
2022/11/03 03:12:26;;;;;;;11.82;4.28;;;;;;;10.21;100.00;163234.09;5069271;28;20037;-63
2022/11/03 03:14:55;;;;;;;10.88;4.50;;;;;;;10.14;100.00;163216.59;5084575;28;20431;-62
2022/11/03 03:17:33;;;;;;;15.60;5.63;;;;;;;10.11;100.00;163208.47;5083432;28;20101;-62
2022/11/03 03:20:04;;;;;;;12.02;4.72;;;;;;;10.11;100.00;163208.47;5090730;28;20454;-62
2022/11/03 03:22:46;;;;;;;9.35;4.15;;;;;;;10.08;100.00;163200.41;5089431;28;20059;-62
2022/11/03 03:25:20;;;;;;;20.60;5.70;;;;;;;9.96;100.00;163168.00;5069832;28;20032;-62
2022/11/03 03:27:49;;;;;;;16.70;6.40;;;;;;;9.98;100.00;163173.41;5069637;28;20529;-62
2022/11/03 03:30:15;;;;;;;11.60;5.90;;;;;;;9.97;100.00;163172.06;5081069;28;20081;-63
2022/11/03 03:32:45;;;;;;;15.50;4.20;;;;;;;10.00;100.00;163180.16;5088975;28;20508;-63
2022/11/03 03:35:16;;;;;;;15.27;5.68;;;;;;;9.99;100.00;163177.44;5078102;28;20028;-64
2022/11/03 03:37:45;;;;;;;12.30;5.25;;;;;;;9.99;100.00;163177.44;5085478;28;20043;-63
2022/11/03 03:40:15;;;;;;;19.35;6.28;;;;;;;9.93;100.00;163159.94;5071798;28;20031;-64
2022/11/03 03:42:43;;;;;;;14.05;5.03;;;;;;;9.88;100.00;163147.78;5089454;28;20074;-63
2022/11/03 03:45:10;;;;;;;11.30;5.85;;;;;;;9.94;100.00;163162.63;5090077;28;20389;-62
2022/11/03 03:47:36;;;;;;;14.48;5.75;;;;;;;9.92;100.00;163157.22;5072880;28;20040;-63
2022/11/03 03:50:01;;;;;;;17.45;5.32;;;;;;;9.95;100.00;163166.66;5070194;28;20103;-62
2022/11/03 03:52:28;;;;;;;9.75;4.78;;;;;;;9.98;100.00;163173.41;5073956;28;20035;-62
2022/11/03 03:54:55;;;;;;;10.43;4.70;;;;;;;10.01;100.00;163181.53;5089757;28;20024;-62
2022/11/03 03:57:23;;;;;;;18.08;5.97;;;;;;;10.02;100.00;163182.84;5076294;28;20043;-62
2022/11/03 03:59:49;;;;;;;18.05;4.97;;;;;;;10.06;100.00;163195.00;5076354;28;20477;-62
2022/11/03 04:02:14;;;;;;;10.15;5.20;;;;;;;10.05;100.00;163192.28;5088372;28;20089;-62
2022/11/03 04:04:40;;;;;;;15.05;6.00;;;;;;;10.06;100.00;163195.00;5090359;28;20024;-62
2022/11/03 04:09:49;;;;;;;14.38;6.13;;;;;;;10.03;100.00;163186.88;5087118;28;20553;-63
2022/11/03 04:23:14;;;;;;;13.05;5.43;;;;;;;10.23;100.00;163238.19;5089385;28;20051;-64
2022/11/03 04:25:46;;;;;;;11.98;3.72;;;;;;;10.18;100.00;163224.66;5074427;28;20032;-64
2022/11/03 04:28:13;;;;;;;15.02;4.45;;;;;;;10.14;100.00;163215.22;5091600;28;20099;-64
2022/11/03 04:30:39;;;;;;;14.55;4.50;;;;;;;10.15;100.00;163219.28;5078580;28;20035;-64
2022/11/03 04:33:13;;;;;;;15.00;4.22;;;;;;;10.15;100.00;163217.91;5071479;28;20056;-64
2022/11/03 04:35:38;;;;;;;13.23;4.35;;;;;;;10.15;100.00;163219.28;5073243;28;20099;-63
2022/11/03 04:38:11;;;;;;;13.98;4.63;;;;;;;10.14;100.00;163216.59;5089689;28;20048;-64
2022/11/03 04:40:38;;;;;;;13.38;6.50;;;;;;;10.21;100.00;163232.78;5091908;28;20035;-63
2022/11/03 04:43:09;;;;;;;10.75;4.00;;;;;;;10.25;100.00;163244.94;5091890;28;20078;-63
2022/11/03 04:45:37;;;;;;;13.20;4.47;;;;;;;10.29;100.00;163254.38;5093418;28;20032;-64
2022/11/03 04:48:14;;;;;;;17.63;4.50;;;;;;;10.26;100.00;163247.63;5073166;28;20519;-63
2022/11/03 04:50:40;;;;;;;19.80;4.97;;;;;;;10.27;100.00;163248.97;5073394;28;20056;-63
2022/11/03 04:53:12;;;;;;;17.42;5.40;;;;;;;10.30;100.00;163257.09;5086624;28;20131;-64
2022/11/03 04:55:39;;;;;;;16.25;5.07;;;;;;;10.30;100.00;163258.41;5080092;28;20027;-65
2022/11/03 04:58:23;;;;;;;9.45;3.40;;;;;;;10.28;100.00;163253.00;5077597;28;20032;-62
2022/11/03 05:00:55;;;;;;;8.02;4.60;;;;;;;10.30;100.00;163258.41;5072735;28;20085;-62
2022/11/03 05:03:41;;;;;;;16.08;4.85;;;;;;;10.34;100.00;163267.84;5075020;28;20048;-61
2022/11/03 05:06:16;;;;;;;12.70;6.68;;;;;;;10.37;100.00;163276.03;5073939;28;20079;-62
2022/11/03 05:08:45;;;;;;;11.73;5.47;;;;;;;10.37;100.00;163276.03;5086938;28;20411;-62
2022/11/03 05:11:13;;;;;;;;;;;;;;;10.38;100.00;163278.72;5091635;28;20031;-62
2022/11/03 05:13:38;;;;;;;13.27;4.85;;;;;;;10.41;100.00;163286.81;5092240;28;19923;-63
2022/11/03 05:16:04;;;;;;;14.50;4.55;;;;;;;10.43;100.00;163292.22;5072924;28;20032;-63
2022/11/03 05:18:31;;;;;;;11.45;4.65;;;;;;;10.44;100.00;163294.91;5091376;28;20040;-62
2022/11/03 05:21:12;;;;;;;11.90;4.55;;;;;;;10.51;100.00;163311.09;5092271;28;20024;-62
2022/11/03 05:23:39;;;;;;;16.27;6.88;;;;;;;10.51;100.00;163311.09;5080815;28;20040;-62
2022/11/03 05:26:10;;;;;;;11.27;4.80;;;;;;;10.52;100.00;163313.81;5072994;28;20027;-60
2022/11/03 05:28:43;;;;;;;11.48;6.72;;;;;;;10.56;100.00;163324.59;5091311;28;20036;-63
2022/11/03 05:31:19;;;;;;;24.58;4.50;;;;;;;10.59;100.00;163332.72;5088773;28;20034;-56
2022/11/03 05:33:46;;;;;;;11.38;4.80;;;;;;;10.64;100.00;163346.19;5075549;28;20040;-60
2022/11/03 05:36:15;;;;;;;16.67;5.03;;;;;;;10.66;100.00;163350.22;5070607;28;20024;-60
2022/11/03 05:38:41;;;;;;;16.05;5.45;;;;;;;10.62;100.00;163340.78;5071634;28;20025;-60
2022/11/03 05:41:21;;;;;;;13.88;5.40;;;;;;;10.69;100.00;163358.34;5072269;28;20112;-60
2022/11/03 05:43:59;;;;;;;19.45;5.40;;;;;;;10.67;100.00;163354.31;5070738;28;20037;-60
2022/11/03 05:46:30;;;;;;;13.48;3.90;;;;;;;10.74;100.00;163373.22;5070038;28;20035;-60
2022/11/03 05:48:57;;;;;;;11.00;5.15;;;;;;;10.73;100.00;163370.50;5072141;28;20021;-60
2022/11/03 05:51:28;;;;;;;19.38;6.13;;;;;;;10.75;100.00;163375.91;5070379;28;20069;-60
2022/11/03 05:53:57;;;;;;;10.23;4.47;;;;;;;10.69;100.00;163359.66;5071526;28;20477;-60
2022/11/03 05:56:23;;;;;;;18.98;5.57;;;;;;;10.74;100.00;163373.22;5070289;28;20089;-60
2022/11/03 05:58:51;;;;;;;14.75;5.05;;;;;;;10.79;100.00;163386.69;5071930;28;20116;-60
2022/11/03 06:01:31;;;;;;;12.20;5.07;;;;;;;10.74;100.00;163373.22;5069720;28;20031;-60
2022/11/03 06:04:20;;;;;;;22.75;4.60;;;;;;;10.71;100.00;163365.09;5071918;28;20031;-60
2022/11/03 06:06:52;;;;;;;8.82;4.25;;;;;;;10.70;100.00;163362.38;5070442;28;20041;-60
2022/11/03 06:09:21;;;;;;;7.70;3.97;;;;;;;10.70;100.00;163362.38;5071090;28;20052;-60
2022/11/03 06:11:50;;;;;;;16.85;4.90;;;;;;;10.67;100.00;163354.31;5070415;28;20041;-60
2022/11/03 06:14:26;;;;;;;11.65;5.47;;;;;;;10.69;100.00;163359.66;5071071;28;20074;-60
2022/11/03 06:16:55;;;;;;;14.52;6.18;;;;;;;10.67;100.00;163352.94;5069918;28;20107;-60
2022/11/03 06:19:41;;;;;;;14.13;6.57;;;;;;;10.65;100.00;163348.91;5069952;28;20032;-60
2022/11/03 06:22:30;;;;;;;17.40;4.97;;;;;;;10.70;100.00;163361.06;5069403;28;20072;-60
2022/11/03 06:24:58;;;;;;;;;;;;;;;10.68;100.00;163357.03;5071833;28;20029;-60
2022/11/03 06:27:26;;;;;;;14.18;6.43;;;;;;;10.71;100.00;163365.09;5069846;28;19923;-60
2022/11/03 06:29:56;;;;;;;14.60;4.40;;;;;;;10.72;100.00;163367.78;5070871;28;20032;-60
2022/11/03 06:32:22;;;;;;;12.30;5.00;;;;;;;10.76;100.00;163378.56;5069359;28;20434;-60
2022/11/03 06:34:50;;;;;;;12.48;4.63;;;;;;;10.77;100.00;163381.28;5071303;28;20030;-60
2022/11/03 06:37:23;;;;;;;12.20;4.63;;;;;;;10.78;100.00;163384.00;5069198;28;20048;-60
2022/11/03 06:39:50;;;;;;;8.98;4.53;;;;;;;10.81;100.00;163389.41;5071133;28;20443;-60
2022/11/03 06:42:19;;;;;;;19.67;6.28;;;;;;;10.88;100.00;163408.28;5069348;28;20071;-60
2022/11/03 06:44:47;;;;;;;15.45;5.35;;;;;;;10.89;100.00;163411.00;5070245;28;20040;-60
2022/11/03 06:47:24;;;;;;;12.48;4.85;;;;;;;10.84;100.00;163397.47;5069376;28;20067;-60
2022/11/03 06:49:51;;;;;;;15.25;5.07;;;;;;;10.87;100.00;163405.59;5071213;28;20025;-60
2022/11/03 06:52:33;;;;;;;11.77;4.88;;;;;;;10.95;100.00;163427.19;5069302;28;20134;-60
2022/11/03 06:55:07;;;;;;;14.88;4.25;;;;;;;10.94;100.00;163424.50;5070878;28;20059;-60
2022/11/03 06:57:40;;;;;;;12.43;5.05;;;;;;;10.97;100.00;163432.63;5069237;28;20431;-60
2022/11/03 07:00:22;;;;;;;11.15;4.95;;;;;;;11.00;100.00;163440.69;5085660;28;20058;-60
2022/11/03 07:02:54;;;;;;;18.88;4.20;;;;;;;11.01;100.00;163443.38;5082624;28;20519;-60
2022/11/03 07:05:23;;;;;;;8.63;4.65;;;;;;;11.08;100.00;163462.28;5079580;28;20557;-60
2022/11/03 07:07:51;;;;;;;11.95;5.00;;;;;;;11.10;100.00;163467.72;5077115;28;20091;-60
2022/11/03 07:10:17;;;;;;;11.05;4.70;;;;;;;11.14;100.00;163475.78;5070502;28;20025;-60
2022/11/03 07:12:42;;;;;;;9.32;4.10;;;;;;;11.19;100.00;163489.31;5069014;28;20045;-61
2022/11/03 07:15:23;;;;;;;10.57;5.95;;;;;;;11.23;100.00;163500.09;5069981;28;20031;-60
2022/11/03 07:17:48;;;;;;;13.60;5.28;;;;;;;11.26;100.00;163508.22;5080717;28;20035;-60
2022/11/03 07:20:15;;;;;;;11.52;3.65;;;;;;;11.36;100.00;163535.19;5083284;28;20086;-60
2022/11/03 07:22:42;;;;;;;16.92;5.45;;;;;;;11.36;100.00;163533.88;5075478;28;20040;-60
2022/11/03 07:25:14;;;;;;;12.32;5.45;;;;;;;11.36;100.00;163535.19;5090457;28;20024;-60
2022/11/03 07:27:40;;;;;;;13.73;4.45;;;;;;;11.36;100.00;163535.19;5089276;28;20147;-60
2022/11/03 07:30:23;;;;;;;12.27;4.47;;;;;;;11.45;100.00;163556.81;5090015;28;20652;-60
2022/11/03 07:32:52;;;;;;;9.18;3.90;;;;;;;11.43;100.00;163554.09;5089080;28;20110;-60
2022/11/03 07:35:31;;;;;;;16.75;5.18;;;;;;;11.46;100.00;163559.50;5084056;28;20020;-60
2022/11/03 07:38:02;;;;;;;11.25;4.40;;;;;;;11.51;100.00;163574.38;5068733;28;20044;-60
2022/11/03 07:40:30;;;;;;;11.35;4.75;;;;;;;11.54;100.00;163581.13;5070224;28;20031;-60
2022/11/03 07:42:58;;;;;;;14.60;4.57;;;;;;;11.57;100.00;163590.59;5068951;28;20033;-60
2022/11/03 07:45:52;;;;;;;13.48;5.00;;;;;;;11.65;100.00;163609.50;5069877;28;20668;-60
2022/11/03 07:48:22;;;;;;;11.07;3.90;;;;;;;11.66;100.00;163613.53;5068731;28;20043;-60
2022/11/03 07:50:57;;;;;;;7.47;3.30;;;;;;;11.62;100.00;163602.75;5069943;28;20488;-60
2022/11/03 07:53:43;;;;;;;11.88;3.72;;;;;;;11.75;100.00;163636.53;5068607;28;20124;-60
2022/11/03 07:56:26;;;;;;;8.20;3.55;;;;;;;11.77;100.00;163640.56;5071727;28;20086;-60
2022/11/03 07:58:59;;;;;;;8.35;4.15;;;;;;;11.79;100.00;163645.97;5072245;28;20408;-60
2022/11/03 08:01:36;;;;;;;8.85;4.10;;;;;;;11.85;100.00;163662.19;5072508;28;20013;-60
2022/11/03 08:04:05;;;;;;;17.27;4.72;;;;;;;11.90;100.00;163675.69;5073832;28;20044;-60
2022/11/03 08:06:30;;;;;;;;;;;;;;;11.92;100.00;163681.09;5072756;28;20032;-60
2022/11/03 08:08:56;;;;;;;12.15;4.75;;;;;;;11.97;100.00;163694.63;5074166;28;19968;-60
2022/11/03 08:11:22;;;;;;;18.65;6.88;;;;;;;12.01;100.00;163705.47;5072297;28;20683;-60
2022/11/03 08:13:51;;;;;;;15.65;4.22;;;;;;;12.01;100.00;163704.09;5073744;28;20058;-60
2022/11/03 08:16:17;;;;;;;15.85;4.03;;;;;;;12.03;100.00;163710.84;5072443;28;20039;-60
2022/11/03 08:18:42;;;;;;;28.05;6.13;;;;;;;12.09;100.00;163725.72;5073650;28;20028;-60
2022/11/03 08:21:08;;;;;;;12.60;4.28;;;;;;;12.16;100.00;163743.31;5073235;28;20054;-60
2022/11/03 08:23:33;;;;;;;6.72;4.07;;;;;;;12.31;100.00;163783.84;5072195;28;20040;-60
2022/11/03 08:25:59;;;;;;;13.57;3.30;;;;;;;12.40;100.00;163806.78;5073634;28;20385;-60
2022/11/03 08:28:24;;;;;;;15.40;3.70;;;;;;;12.46;100.00;163821.66;5071580;28;20060;-60
2022/11/03 08:30:50;;;;;;;8.18;5.07;;;;;;;12.57;100.00;163851.38;5073584;28;20473;-60
2022/11/03 08:33:15;;;;;;;12.25;5.47;;;;;;;12.68;100.00;163881.13;5071820;28;20056;-60
2022/11/03 08:35:41;;;;;;;17.67;3.75;;;;;;;12.75;100.00;163898.69;5073293;28;20021;-60
2022/11/03 08:38:06;;;;;;;21.05;4.25;;;;;;;12.83;100.00;163920.31;5071555;28;20109;-60
2022/11/03 08:40:31;;;;;;;14.18;3.58;;;;;;;13.03;100.00;163971.66;5073364;28;20028;-60
2022/11/03 08:42:57;;;;;;;6.20;4.35;;;;;;;13.09;100.00;163986.53;5071617;28;20044;-60
2022/11/03 08:45:22;;;;;;;12.23;3.67;;;;;;;13.29;100.00;164040.59;5072937;28;20208;-60
2022/11/03 08:47:48;;;;;;;10.40;3.63;;;;;;;13.60;100.00;164120.47;5071954;28;20113;-60
2022/11/03 08:50:13;;;;;;;14.32;4.75;;;;;;;13.73;100.00;164154.28;5072082;28;20016;-60
2022/11/03 08:52:39;;;;;;;11.00;3.63;;;;;;;13.89;100.00;164196.19;5071633;28;20033;-60
2022/11/03 08:55:05;;;;;;;9.85;4.55;;;;;;;14.01;100.00;164228.63;5072739;28;20471;-60
2022/11/03 08:57:30;;;;;;;13.88;4.45;;;;;;;14.15;100.00;164265.19;5071230;28;20441;-60
2022/11/03 08:59:55;;;;;;;15.10;4.90;;;;;;;14.31;100.00;164305.75;5073070;28;20031;-60
2022/11/03 09:02:21;;;;;;;7.10;3.05;;;;;;;14.35;100.00;164316.56;5071512;28;20052;-60
2022/11/03 09:04:46;;;;;;;8.57;4.72;;;;;;;14.27;100.00;164297.63;5072707;28;20089;-60
2022/11/03 09:07:11;;;;;;;6.93;3.22;;;;;;;14.30;100.00;164303.06;5071175;28;20508;-60
2022/11/03 09:09:37;;;;;;;11.27;4.00;;;;;;;14.45;100.00;164343.66;5072816;28;20033;-60
2022/11/03 09:12:02;;;;;;;10.70;4.60;;;;;;;14.47;100.00;164347.69;5070860;28;20045;-60
2022/11/03 09:14:28;;;;;;;8.05;3.42;;;;;;;14.37;100.00;164323.31;5072518;28;20029;-60
2022/11/03 09:16:53;;;;;;;7.20;2.65;;;;;;;14.37;100.00;164322.00;5071339;28;20098;-60
2022/11/03 09:19:18;;;;;;;10.80;2.70;;;;;;;14.44;100.00;164342.25;5072568;28;20028;-60
2022/11/03 09:21:44;;;;;;;14.98;4.30;;;;;;;14.74;100.00;164419.47;5070836;28;20041;-60
2022/11/03 09:24:09;;;;;;;12.32;3.95;;;;;;;15.21;100.00;164542.59;5072101;28;20020;-60
2022/11/03 09:26:34;;;;;;;13.60;3.83;;;;;;;15.63;100.00;164652.25;5071193;28;20523;-60
2022/11/03 09:29:00;;;;;;;11.38;4.45;;;;;;;15.96;100.00;164739.00;5072424;28;20031;-60
2022/11/03 09:31:27;;;;;;;12.02;3.08;;;;;;;16.23;100.00;164809.41;5070498;28;20090;-60
2022/11/03 09:33:53;;;;;;;7.38;5.38;;;;;;;16.05;100.00;164763.31;5070765;28;20052;-60
2022/11/03 09:36:18;;;;;;;23.63;4.97;;;;;;;15.91;100.00;164725.41;5068546;28;20103;-61
2022/11/03 09:38:43;;;;;;;11.55;4.60;;;;;;;15.85;100.00;164711.88;5070770;28;20020;-60
2022/11/03 09:41:16;;;;;;;6.65;3.80;;;;;;;15.61;100.00;164646.84;5070613;28;20059;-60
2022/11/03 09:43:45;;;;;;;10.60;4.38;;;;;;;15.26;100.00;164554.78;5069056;28;20060;-61
2022/11/03 09:46:10;;;;;;;;;;;;;;;15.14;100.00;164523.66;5069637;28;20055;-59
2022/11/03 09:48:36;;;;;;;13.70;4.88;;;;;;;14.87;100.00;164454.63;5071576;28;19948;-60
2022/11/03 09:51:01;;;;;;;5.40;2.20;;;;;;;14.83;100.00;164443.84;5071633;28;20020;-60
2022/11/03 09:53:27;;;;;;;11.73;4.13;;;;;;;14.81;100.00;164437.06;5070495;28;20068;-60
2022/11/03 09:55:53;;;;;;;14.10;4.00;;;;;;;15.00;100.00;164487.16;5071999;28;20017;-60
2022/11/03 09:58:19;;;;;;;5.00;2.92;;;;;;;14.97;100.00;164479.00;5069922;28;20047;-60
2022/11/03 10:00:44;;;;;;;12.23;4.38;;;;;;;14.96;100.00;164476.28;5070401;28;20032;-60
2022/11/03 10:03:19;;;;;;;7.20;3.47;;;;;;;14.99;100.00;164484.44;5070151;28;20036;-60
2022/11/03 10:05:46;;;;;;;10.32;2.88;;;;;;;15.04;100.00;164497.94;5071649;28;20077;-60
2022/11/03 10:08:23;;;;;;;7.07;3.92;;;;;;;15.16;100.00;164530.41;5070062;28;20123;-60
2022/11/03 10:10:49;;;;;;;13.25;3.95;;;;;;;15.12;100.00;164519.59;5071722;28;20024;-60
2022/11/03 10:13:23;;;;;;;9.52;2.92;;;;;;;15.26;100.00;164554.78;5069590;28;20067;-60
2022/11/03 10:15:48;;;;;;;6.85;3.20;;;;;;;15.39;100.00;164589.97;5071504;28;20017;-61
2022/11/03 10:18:14;;;;;;;18.33;4.45;;;;;;;15.52;100.00;164625.22;5069400;28;20684;-60
2022/11/03 10:20:39;;;;;;;5.05;3.13;;;;;;;15.64;100.00;164654.97;5071173;28;20068;-60
2022/11/03 10:23:04;;;;;;;9.15;3.28;;;;;;;15.60;100.00;164644.16;5069461;28;20040;-60
2022/11/03 10:25:30;;;;;;;8.05;3.03;;;;;;;15.65;100.00;164657.69;5071402;28;20025;-60
2022/11/03 10:28:16;;;;;;;12.55;4.13;;;;;;;15.45;100.00;164606.22;5069598;28;20163;-60
2022/11/03 10:30:55;;;;;;;17.50;3.72;;;;;;;15.23;100.00;164549.38;5071583;28;20390;-60
2022/11/03 10:33:30;;;;;;;9.38;2.78;;;;;;;15.12;100.00;164519.59;5069512;28;20114;-60
2022/11/03 10:35:57;;;;;;;11.55;2.25;;;;;;;15.06;100.00;164504.72;5073394;28;20110;-60
2022/11/03 10:38:30;;;;;;;11.50;3.55;;;;;;;15.07;100.00;164506.09;5089400;28;20419;-60
2022/11/03 10:41:09;;;;;;;6.85;3.45;;;;;;;14.84;100.00;164446.53;5091255;28;20043;-60
2022/11/03 10:43:35;;;;;;;11.13;3.00;;;;;;;14.84;100.00;164446.53;5089757;28;20487;-60
2022/11/03 10:46:19;;;;;;;8.93;3.55;;;;;;;14.95;100.00;164473.56;5091117;28;20031;-60
2022/11/03 10:49:01;;;;;;;11.50;3.35;;;;;;;14.95;100.00;164473.56;5089355;28;20123;-60
2022/11/03 10:51:27;;;;;;;9.30;2.60;;;;;;;14.86;100.00;164451.91;5089956;28;20031;-60
2022/11/03 10:53:53;;;;;;;8.57;3.10;;;;;;;14.90;100.00;164461.38;5089430;28;20032;-60
2022/11/03 10:56:18;;;;;;;5.78;3.30;;;;;;;14.87;100.00;164454.63;5068833;28;20023;-60
2022/11/03 10:58:44;;;;;;;6.68;3.30;;;;;;;14.95;100.00;164473.56;5070768;28;20032;-60
2022/11/03 11:01:10;;;;;;;10.18;3.10;;;;;;;14.90;100.00;164461.38;5070677;28;20469;-60
2022/11/03 11:03:42;;;;;;;13.00;5.03;;;;;;;14.85;100.00;164449.25;5068894;28;20040;-60
2022/11/03 11:06:28;;;;;;;11.98;3.45;;;;;;;14.85;100.00;164449.25;5070413;28;20024;-60
2022/11/03 11:08:59;;;;;;;11.10;2.47;;;;;;;14.79;100.00;164432.97;5069461;28;20118;-60
2022/11/03 11:11:25;;;;;;;6.30;3.58;;;;;;;14.84;100.00;164446.53;5070848;28;20145;-60
2022/11/03 11:14:24;;;;;;;8.30;3.38;;;;;;;14.83;100.00;164443.84;5090245;28;20024;-60
2022/11/03 11:16:54;;;;;;;15.70;3.55;;;;;;;14.83;100.00;164443.84;5088982;28;20051;-60
2022/11/03 11:19:21;;;;;;;10.75;4.03;;;;;;;14.84;100.00;164446.53;5088190;28;20066;-60
2022/11/03 11:21:46;;;;;;;7.25;3.88;;;;;;;14.79;100.00;164432.97;5085547;28;20396;-60
2022/11/03 11:24:13;;;;;;;6.13;2.42;;;;;;;14.83;100.00;164443.84;5070356;28;20104;-60
2022/11/03 11:26:40;;;;;;;10.23;3.42;;;;;;;14.75;100.00;164422.16;5081528;28;20537;-60
2022/11/03 11:29:09;;;;;;;7.78;3.65;;;;;;;14.68;100.00;164403.22;5081290;28;20070;-60
2022/11/03 11:31:35;;;;;;;6.60;3.13;;;;;;;14.63;100.00;164391.00;5084457;28;20060;-60
2022/11/03 11:34:09;;;;;;;5.32;3.60;;;;;;;14.64;100.00;164392.31;5083934;28;20502;-60
2022/11/03 11:36:36;;;;;;;4.75;2.90;;;;;;;14.66;100.00;164397.81;5088091;28;20048;-60
2022/11/03 11:39:07;;;;;;;6.05;2.95;;;;;;;14.72;100.00;164414.03;5091736;28;20020;-60
2022/11/03 11:42:04;;;;;;;5.85;2.88;;;;;;;14.75;100.00;164422.16;5077665;28;20082;-60
2022/11/03 11:44:38;;;;;;;6.65;2.90;;;;;;;14.78;100.00;164428.94;5082867;28;20379;-59